createdAt,value
2023-02-24T00:01:52.787Z,96467.47
2023-02-24T00:05:57.671Z,96475.44
2023-02-24T00:10:02.914Z,96464.75
2023-02-24T00:14:05.815Z,96459.50
2023-02-24T00:18:11.210Z,96452.19
2023-02-24T00:22:14.342Z,96449.56
2023-02-24T00:26:17.513Z,96446.06
2023-02-24T00:30:21.723Z,96432.38
2023-02-24T00:34:22.338Z,96423.19
2023-02-24T00:38:25.732Z,96417.88
2023-02-24T00:42:29.015Z,96429.28
2023-02-24T00:46:31.456Z,96420.28
2023-02-24T00:50:35.992Z,96407.88
2023-02-24T00:54:53.680Z,96406.97
2023-02-24T00:58:56.488Z,96417.88
2023-02-24T01:02:59.818Z,96409.84
2023-02-24T01:07:03.856Z,96407.09
2023-02-24T01:11:20.820Z,96403.94
2023-02-24T01:15:26.491Z,96395.31
2023-02-24T01:19:32.810Z,96392.97
2023-02-24T01:23:36.180Z,96355.91
2023-02-24T01:27:43.429Z,96389.69
2023-02-24T01:31:45.233Z,96367.59
2023-02-24T01:35:47.192Z,96371.28
2023-02-24T01:39:48.539Z,96373.84
2023-02-24T01:44:11.547Z,96360.63
2023-02-24T01:48:17.412Z,96354.34
2023-02-24T01:52:25.098Z,96355.91
2023-02-24T01:56:25.714Z,96351.44
2023-02-24T02:00:38.105Z,96358.28
2023-02-24T02:04:50.148Z,96347.69
2023-02-24T02:08:52.480Z,96341.41
2023-02-24T02:12:54.048Z,96345.72
2023-02-24T02:17:16.142Z,96340.84
2023-02-24T02:21:46.319Z,96344.69
2023-02-24T02:26:18.977Z,96335.66
2023-02-24T02:30:51.236Z,96326.78
2023-02-24T02:35:04.419Z,96333.03
2023-02-24T02:39:19.601Z,96303.13
2023-02-24T02:43:31.823Z,96315.41
2023-02-24T02:47:43.505Z,96297.09
2023-02-24T02:51:55.253Z,96293.28
2023-02-24T02:56:03.073Z,96309.91
2023-02-24T03:00:14.322Z,96298.56
2023-02-24T03:04:23.111Z,96305.03
2023-02-24T03:08:34.537Z,96304.91
2023-02-24T03:12:37.506Z,96291.69
2023-02-24T03:16:40.311Z,96294.50
2023-02-24T03:20:47.800Z,96268.31
2023-02-24T03:24:51.901Z,96285.00
2023-02-24T03:29:10.320Z,96282.34
2023-02-24T03:33:24.182Z,96274.84
2023-02-24T03:37:28.197Z,96273.22
2023-02-24T03:41:42.642Z,96270.78
2023-02-24T03:45:46.583Z,96281.56
2023-02-24T03:49:47.407Z,96276.69
2023-02-24T03:54:09.424Z,96285.31
2023-02-24T03:58:27.025Z,96275.63
2023-02-24T04:02:34.150Z,96275.41
2023-02-24T04:06:50.005Z,96273.34
2023-02-24T04:10:58.821Z,96278.22
2023-02-24T04:15:23.926Z,96270.09
2023-02-24T04:19:31.969Z,96262.06
2023-02-24T04:23:38.792Z,96268.13
2023-02-24T04:27:41.517Z,96259.41
2023-02-24T04:31:58.791Z,96262.41
2023-02-24T04:35:59.708Z,96263.81
2023-02-24T04:40:02.318Z,96247.31
2023-02-24T04:44:02.958Z,96246.59
2023-02-24T04:48:12.818Z,96231.97
2023-02-24T04:52:15.497Z,96220.28
2023-02-24T04:56:18.844Z,96216.78
2023-02-24T05:00:26.505Z,96215.31
2023-02-24T05:04:36.088Z,96206.84
2023-02-24T05:08:39.172Z,96214.19
2023-02-24T05:12:42.484Z,96207.81
2023-02-24T05:16:44.729Z,96212.06
2023-02-24T05:21:03.583Z,96207.94
2023-02-24T05:25:04.543Z,96206.63
2023-02-24T05:29:07.445Z,96209.78
2023-02-24T05:33:08.429Z,96205.53
2023-02-24T05:37:12.088Z,96159.00
2023-02-24T05:41:17.140Z,96192.59
2023-02-24T05:45:18.834Z,96198.75
2023-02-24T05:49:23.977Z,96179.66
2023-02-24T05:53:27.604Z,96186.72
2023-02-24T05:57:33.187Z,96184.47
2023-02-24T06:01:35.992Z,96176.72
2023-02-24T06:05:39.853Z,96172.59
2023-02-24T06:09:45.318Z,96168.88
2023-02-24T06:13:48.616Z,96173.69
2023-02-24T06:17:49.843Z,96168.41
2023-02-24T06:21:53.016Z,96180.94
2023-02-24T06:25:59.492Z,96172.94
2023-02-24T06:30:00.325Z,96174.66
2023-02-24T06:34:00.741Z,96173.88
2023-02-24T06:38:04.616Z,96166.78
2023-02-24T06:42:10.780Z,96166.53
2023-02-24T06:46:13.628Z,96162.59
2023-02-24T06:50:15.334Z,96164.16
2023-02-24T06:54:15.939Z,96161.25
2023-02-24T06:58:24.369Z,96161.38
2023-02-24T07:02:29.771Z,96164.78
2023-02-24T07:06:31.191Z,96149.47
2023-02-24T07:10:31.992Z,96153.28
2023-02-24T07:14:37.184Z,96160.19
2023-02-24T07:18:41.004Z,96157.97
2023-02-24T07:22:42.331Z,96156.88
2023-02-24T07:26:51.782Z,96153.78
2023-02-24T07:30:55.315Z,96143.75
2023-02-24T07:34:55.850Z,96149.41
2023-02-24T07:38:58.231Z,96117.25
2023-02-24T07:42:58.858Z,96140.81
2023-02-24T07:47:08.108Z,96132.50
2023-02-24T07:51:10.676Z,96125.81
2023-02-24T07:55:14.060Z,96121.84
2023-02-24T07:59:19.503Z,96110.53
2023-02-24T08:03:23.926Z,96114.22
2023-02-24T08:07:30.613Z,96117.81
2023-02-24T09:16:16.864Z,96078.81
2023-02-24T09:20:33.952Z,96081.88
2023-02-24T09:24:35.757Z,96071.41
2023-02-24T09:28:48.840Z,96071.78
2023-02-24T09:33:01.300Z,96071.41
2023-02-24T09:37:04.627Z,96067.69
2023-02-24T09:41:18.291Z,96059.59
2023-02-24T09:45:33.611Z,96058.09
2023-02-24T09:49:50.576Z,96066.13
2023-02-24T09:54:06.384Z,96050.31
2023-02-24T09:58:41.806Z,96043.69
2023-02-24T10:03:00.515Z,96049.16
2023-02-24T10:07:12.975Z,96039.44
2023-02-24T10:11:16.023Z,96036.84
2023-02-24T10:15:42.869Z,96016.75
2023-02-24T10:19:44.158Z,96011.47
2023-02-24T10:24:05.880Z,96015.53
2023-02-24T10:28:24.723Z,96005.03
2023-02-24T10:32:41.412Z,95997.13
2023-02-24T10:36:47.872Z,96000.25
2023-02-24T10:40:58.252Z,95976.44
2023-02-24T10:45:19.643Z,95965.56
2023-02-24T10:49:25.343Z,95971.38
2023-02-24T10:53:36.145Z,95970.66
2023-02-24T10:57:58.957Z,95955.34
2023-02-24T11:02:24.974Z,95945.81
2023-02-24T11:06:42.476Z,95926.13
2023-02-24T11:11:07.181Z,95927.78
2023-02-24T11:15:52.129Z,95887.03
2023-02-24T11:20:11.116Z,95862.09
2023-02-24T11:24:21.832Z,95865.41
2023-02-24T11:28:43.610Z,95862.56
2023-02-24T11:33:29.395Z,95866.28
2023-02-24T11:37:43.513Z,95842.81
2023-02-24T11:41:53.492Z,95867.16
2023-02-24T11:46:02.291Z,95867.00
2023-02-24T11:50:32.695Z,95838.41
2023-02-24T11:54:42.066Z,95829.66
2023-02-24T11:58:49.456Z,95820.19
2023-02-24T12:03:04.039Z,95825.38
2023-02-24T12:07:21.998Z,95808.69
2023-02-24T12:11:36.484Z,95805.41
2023-02-24T12:15:49.664Z,95807.06
2023-02-24T12:20:07.877Z,95776.34
2023-02-24T12:24:17.771Z,95765.66
2023-02-24T12:28:37.030Z,95773.53
2023-02-24T12:33:00.330Z,95756.38
2023-02-24T12:37:30.456Z,95756.78
2023-02-24T12:41:57.778Z,95751.13
2023-02-24T12:46:08.622Z,95752.03
2023-02-24T12:50:34.267Z,95748.34
2023-02-24T12:54:48.530Z,95735.09
2023-02-24T13:04:43.343Z,95702.63
2023-02-24T13:08:58.719Z,95714.63
2023-02-24T13:13:12.350Z,95709.63
2023-02-24T13:17:29.742Z,95695.75
2023-02-24T13:21:32.835Z,95665.97
2023-02-24T13:25:41.412Z,95702.16
2023-02-24T13:29:55.120Z,95654.75
2023-02-24T13:34:03.837Z,95680.41
2023-02-24T13:38:40.412Z,95643.94
2023-02-24T13:42:43.353Z,95626.88
2023-02-24T13:47:22.813Z,95642.53
2023-02-24T13:58:20.495Z,95565.97
2023-02-24T14:02:44.667Z,95615.78
2023-02-24T14:06:57.080Z,95615.78
2023-02-24T14:11:03.831Z,95608.09
2023-02-24T14:15:08.565Z,95598.25
2023-02-24T14:19:17.664Z,95591.22
2023-02-24T14:23:34.402Z,95576.41
2023-02-24T14:27:35.351Z,95584.41
2023-02-24T14:31:37.333Z,95576.81
2023-02-24T14:35:44.835Z,95570.47
2023-02-24T14:39:54.919Z,95564.88
2023-02-24T14:43:57.457Z,95555.84
2023-02-24T14:48:03.053Z,95549.78
2023-02-24T14:52:14.441Z,95547.13
2023-02-24T14:56:20.868Z,95550.53
2023-02-24T15:00:28.221Z,95534.13
2023-02-24T15:04:37.991Z,95530.63
2023-02-24T15:08:45.204Z,95530.81
2023-02-24T15:12:54.797Z,95530.84
2023-02-24T15:17:01.535Z,95515.56
2023-02-24T15:21:11.447Z,95512.41
2023-02-24T16:21:11.659Z,95454.47
2023-02-24T16:25:17.634Z,95450.00
2023-02-24T16:29:19.591Z,95450.28
2023-02-24T16:33:24.014Z,95454.09
2023-02-24T16:37:31.127Z,95450.94
2023-02-24T16:41:31.540Z,95454.69
2023-02-24T16:45:35.867Z,95459.22
2023-02-24T16:49:37.677Z,95447.28
2023-02-24T16:53:41.867Z,95456.34
2023-02-24T16:57:43.418Z,95441.91
2023-02-24T17:01:44.175Z,95447.44
2023-02-24T17:05:44.522Z,95447.72
2023-02-24T17:09:48.159Z,95432.81
2023-02-24T17:13:48.980Z,95443.91
2023-02-24T17:17:51.212Z,95439.94
2023-02-24T17:21:51.683Z,95427.84
2023-02-24T17:25:58.687Z,95442.66
2023-02-24T17:29:59.482Z,95439.56
2023-02-24T17:33:59.885Z,95440.38
2023-02-24T17:38:00.717Z,95427.19
2023-02-24T17:42:05.472Z,95426.91
2023-02-24T17:46:07.936Z,95429.50
2023-02-24T17:50:10.484Z,95434.19
2023-02-24T17:54:11.242Z,95417.41
2023-02-24T17:58:14.174Z,95419.78
2023-02-24T18:02:15.244Z,95412.41
2023-02-24T18:06:16.176Z,95388.00
2023-02-24T18:10:16.775Z,95412.66
2023-02-24T18:14:20.160Z,95414.81
2023-02-24T18:18:20.631Z,95404.66
2023-02-24T18:22:20.903Z,95417.59
2023-02-24T18:26:24.216Z,95411.47
2023-02-24T18:30:27.341Z,95398.69
2023-02-24T18:35:19.558Z,95417.09
2023-02-24T18:39:40.385Z,95347.94
2023-02-24T18:49:47.377Z,95339.06
2023-02-24T18:53:52.450Z,95406.00
2023-02-24T18:57:53.767Z,95410.13
2023-02-24T19:01:57.284Z,95379.38
2023-02-24T19:06:02.415Z,95396.00
2023-02-24T19:10:02.958Z,95403.25
2023-02-24T19:14:04.197Z,95375.69
2023-02-24T19:18:24.521Z,95395.66
2023-02-24T19:22:27.902Z,95392.13
2023-02-24T19:26:30.235Z,95396.09
2023-02-24T19:30:35.057Z,95404.78
2023-02-24T19:34:35.386Z,95393.66
2023-02-24T19:38:39.367Z,95406.75
2023-02-24T19:42:40.632Z,95413.19
2023-02-24T19:46:43.600Z,95410.81
2023-02-24T19:50:46.360Z,95421.69
2023-02-24T19:54:49.338Z,95419.78
2023-02-24T19:58:50.131Z,95419.44
2023-02-24T20:02:51.665Z,95448.03
2023-02-24T20:06:53.817Z,95454.38
2023-02-24T20:11:07.166Z,95460.53
2023-02-24T20:15:09.787Z,95465.16
2023-02-24T20:19:13.375Z,95469.00
2023-02-24T20:23:13.787Z,95473.94
2023-02-24T20:27:17.761Z,95468.66
2023-02-24T20:31:21.298Z,95470.72
2023-02-24T20:35:26.341Z,95456.75
2023-02-24T20:39:27.568Z,95468.81
2023-02-24T20:43:31.381Z,95466.19
2023-02-24T20:47:32.276Z,95465.44
2023-02-24T20:51:35.880Z,95453.09
2023-02-24T20:55:36.489Z,95468.16
2023-02-24T20:59:49.239Z,95450.50
2023-02-24T21:03:55.697Z,95460.59
2023-02-24T21:07:57.348Z,95451.25
2023-02-24T21:11:57.764Z,95455.59
2023-02-24T21:16:01.210Z,95460.81
2023-02-24T21:20:01.918Z,95462.59
2023-02-24T21:24:02.797Z,95454.31
2023-02-24T21:28:03.067Z,95453.72
2023-02-24T21:32:06.721Z,95461.25
2023-02-24T21:36:11.694Z,95470.44
2023-02-24T21:40:18.128Z,95464.75
2023-02-24T21:44:19.482Z,95466.34
2023-02-24T21:48:24.188Z,95477.00
2023-02-24T21:52:25.031Z,95470.84
2023-02-24T21:56:29.444Z,95475.63
2023-02-24T22:00:30.455Z,95471.03
2023-02-24T22:04:33.917Z,95462.31
2023-02-24T22:08:34.410Z,95456.03
2023-02-24T22:12:37.708Z,95453.59
2023-02-24T22:16:38.406Z,95452.75
2023-02-24T22:20:42.016Z,95452.75
2023-02-24T22:24:43.218Z,95447.94
2023-02-24T22:28:47.332Z,95445.03
2023-02-24T22:32:47.864Z,95430.06
2023-02-24T22:36:50.952Z,95444.03
2023-02-24T22:41:01.867Z,95441.13
2023-02-24T22:45:02.813Z,95431.00
2023-02-24T22:49:03.665Z,95419.91
2023-02-24T22:53:06.599Z,95435.16
2023-02-24T22:57:07.221Z,95416.88
2023-02-24T23:01:13.326Z,95421.66
2023-02-24T23:05:13.655Z,95420.56
2023-02-24T23:09:20.104Z,95432.25
2023-02-24T23:13:21.237Z,95433.56
2023-02-24T23:17:22.008Z,95441.97
2023-02-24T23:21:25.948Z,95451.13
2023-02-24T23:25:31.564Z,95444.81
2023-02-24T23:29:32.585Z,95432.97
2023-02-24T23:33:33.608Z,95439.50
2023-02-24T23:37:33.896Z,95445.09
2023-02-24T23:41:38.332Z,95437.50
2023-02-24T23:45:40.738Z,95422.88
2023-02-24T23:49:48.465Z,95444.25
2023-02-24T23:53:51.252Z,95444.31
2023-02-24T23:57:54.654Z,95447.97
